Time;durP1;ratioP1;P1;durP2;ratioP2;P2;SDS_P1;SDS_P2;PMS_P1;PMS_P2;Temp;Humidity;BMP_temperature;BMP_pressure;BME280_temperature;BME280_humidity;BME280_pressure;Samples;Min_cycle;Max_cycle;Signal;HPM_P1;HPM_P2
2022/05/02 00:01:33;;;;;;;10.40;5.97;;;6.20;99.90;;;;;;5086771;28;20047;-75
2022/05/02 00:03:59;;;;;;;8.20;5.65;;;6.10;99.90;;;;;;5093006;28;20089;-75
2022/05/02 00:06:24;;;;;;;9.98;6.00;;;6.10;99.90;;;;;;5093942;28;20062;-75
2022/05/02 00:08:50;;;;;;;9.90;5.80;;;6.10;99.90;;;;;;5092200;28;20051;-75
2022/05/02 00:11:16;;;;;;;9.63;6.28;;;6.00;99.90;;;;;;5093038;28;20083;-75
2022/05/02 00:13:41;;;;;;;9.82;5.05;;;6.00;99.90;;;;;;5093566;28;20075;-75
2022/05/02 00:16:07;;;;;;;9.48;6.40;;;6.00;99.90;;;;;;5092294;28;20040;-75
2022/05/02 00:18:33;;;;;;;8.05;5.50;;;6.40;99.90;;;;;;5092293;28;20032;-74
2022/05/02 00:20:59;;;;;;;10.90;6.30;;;5.90;99.90;;;;;;5092374;28;20101;-76
2022/05/02 00:23:24;;;;;;;10.13;6.53;;;5.90;99.90;;;;;;5087976;28;20023;-74
2022/05/02 00:25:50;;;;;;;8.75;5.93;;;5.90;99.90;;;;;;5093033;28;20044;-74
2022/05/02 00:28:16;;;;;;;12.40;6.78;;;5.90;99.90;;;;;;5089944;28;20044;-74
2022/05/02 00:30:42;;;;;;;12.23;6.90;;;5.80;99.90;;;;;;5091289;28;20043;-74
2022/05/02 00:33:08;;;;;;;12.20;7.25;;;5.80;99.90;;;;;;5091258;28;20044;-74
2022/05/02 00:35:34;;;;;;;13.43;6.63;;;5.80;99.90;;;;;;5092744;28;20044;-74
2022/05/02 00:38:00;;;;;;;10.45;6.72;;;5.80;99.90;;;;;;5092762;28;20047;-74
2022/05/02 00:40:25;;;;;;;12.02;7.20;;;5.70;99.90;;;;;;5092778;28;20467;-74
2022/05/02 00:42:51;;;;;;;12.93;6.88;;;5.70;99.90;;;;;;5089171;28;20455;-74
2022/05/02 00:45:19;;;;;;;8.90;6.63;;;5.70;99.90;;;;;;5090054;28;20104;-74
2022/05/02 00:47:53;;;;;;;9.77;6.57;;;5.70;99.90;;;;;;5092902;28;20047;-74
2022/05/02 00:50:38;;;;;;;15.32;7.30;;;5.70;99.90;;;;;;5093256;28;20065;-74
2022/05/02 00:53:07;;;;;;;11.55;7.35;;;5.70;99.90;;;;;;5084367;28;20564;-74
2022/05/02 00:55:33;;;;;;;11.82;7.53;;;5.70;99.90;;;;;;5092245;28;20040;-74
2022/05/02 00:58:00;;;;;;;12.02;6.95;;;5.60;99.90;;;;;;5088501;28;20452;-74
2022/05/02 01:00:31;;;;;;;10.27;7.32;;;5.70;99.90;;;;;;5091640;28;20040;-74
2022/05/02 01:02:57;;;;;;;9.80;6.85;;;5.60;99.90;;;;;;5092233;28;20051;-75
2022/05/02 01:05:23;;;;;;;12.73;7.10;;;5.60;99.90;;;;;;5091918;28;20061;-75
2022/05/02 01:07:49;;;;;;;11.85;7.53;;;5.60;99.90;;;;;;5091613;28;20502;-75
2022/05/02 01:10:17;;;;;;;13.40;7.00;;;5.60;99.90;;;;;;5090764;28;20044;-75
2022/05/02 01:12:44;;;;;;;10.82;7.53;;;5.60;99.90;;;;;;5086761;28;20036;-75
2022/05/02 01:15:10;;;;;;;13.15;8.10;;;5.60;99.90;;;;;;5089776;28;20040;-75
2022/05/02 01:17:37;;;;;;;11.93;7.90;;;5.60;99.90;;;;;;5092180;28;20055;-74
2022/05/02 01:20:10;;;;;;;10.63;7.82;;;5.50;99.90;;;;;;5090677;28;20123;-74
2022/05/02 01:22:36;;;;;;;12.73;7.88;;;5.40;99.90;;;;;;5084341;28;20040;-75
2022/05/02 01:25:02;;;;;;;14.80;7.78;;;5.50;99.90;;;;;;5085854;28;20213;-75
2022/05/02 01:27:28;;;;;;;12.90;8.27;;;5.50;99.90;;;;;;5088401;28;20051;-75
2022/05/02 01:29:53;;;;;;;12.32;7.47;;;5.60;99.90;;;;;;5089798;28;20036;-75
2022/05/02 01:32:19;;;;;;;13.63;8.10;;;5.50;99.90;;;;;;5090350;28;20048;-75
2022/05/02 01:34:44;;;;;;;16.08;8.43;;;5.50;99.90;;;;;;5090713;28;20044;-74
2022/05/02 01:37:12;;;;;;;13.50;8.48;;;5.40;99.90;;;;;;5091877;28;20040;-75
2022/05/02 01:39:38;;;;;;;11.88;8.57;;;5.50;99.90;;;;;;5089700;28;20059;-75
2022/05/02 01:42:06;;;;;;;13.20;8.50;;;5.30;99.90;;;;;;5090303;28;20071;-75
2022/05/02 01:44:33;;;;;;;12.10;8.15;;;5.30;99.90;;;;;;5091312;28;20051;-74
2022/05/02 01:46:59;;;;;;;11.88;8.35;;;5.30;99.90;;;;;;5091610;28;20063;-74
2022/05/02 01:49:24;;;;;;;13.52;9.25;;;5.30;99.90;;;;;;5089851;28;20483;-75
2022/05/02 01:51:51;;;;;;;12.85;8.40;;;5.20;99.90;;;;;;5090030;28;20403;-74
2022/05/02 01:54:17;;;;;;;14.13;9.10;;;5.10;99.90;;;;;;5090093;28;20058;-74
2022/05/02 01:56:44;;;;;;;13.32;8.48;;;5.20;99.90;;;;;;5072163;28;20088;-74
2022/05/02 01:59:10;;;;;;;12.65;8.23;;;5.10;99.90;;;;;;5089830;28;20048;-74
2022/05/02 02:01:36;;;;;;;13.88;8.48;;;5.70;99.90;;;;;;5091537;28;20036;-75
2022/05/02 02:05:48;;;;;;;12.93;8.65;;;5.10;99.90;;;;;;5089593;28;20544;-75
2022/05/02 02:06:52;;;;;;;11.93;8.23;;;5.00;99.90;;;;;;5087543;28;20053;-75
2022/05/02 02:09:18;;;;;;;14.55;9.20;;;5.00;99.90;;;;;;5083102;28;20055;-75
2022/05/02 02:11:44;;;;;;;13.02;8.15;;;5.00;99.90;;;;;;5089605;28;20039;-75
2022/05/02 02:14:10;;;;;;;14.48;8.88;;;4.90;99.90;;;;;;5091056;28;20039;-75
2022/05/02 02:16:35;;;;;;;13.38;8.25;;;4.90;99.90;;;;;;5090384;28;20043;-75
2022/05/02 02:19:01;;;;;;;12.35;8.77;;;4.90;99.90;;;;;;5091584;28;20044;-75
2022/05/02 02:21:27;;;;;;;14.70;9.70;;;4.90;99.90;;;;;;5086300;28;20487;-75
2022/05/02 02:23:53;;;;;;;13.43;8.57;;;4.90;99.90;;;;;;5084171;28;20052;-75
2022/05/02 02:26:19;;;;;;;14.13;8.95;;;4.80;99.90;;;;;;5106811;28;20048;-74
2022/05/02 02:28:45;;;;;;;12.98;8.20;;;4.80;99.90;;;;;;5090633;28;20054;-75
2022/05/02 02:31:10;;;;;;;14.35;9.50;;;4.80;99.90;;;;;;5090693;28;20044;-75
2022/05/02 02:33:37;;;;;;;14.45;8.75;;;4.80;99.90;;;;;;5089669;28;20051;-75
2022/05/02 02:36:03;;;;;;;13.32;8.70;;;4.70;99.90;;;;;;5085697;28;20040;-75
2022/05/02 02:38:29;;;;;;;16.02;9.00;;;4.70;99.90;;;;;;5089968;28;20036;-75
2022/05/02 02:40:55;;;;;;;11.48;8.20;;;4.70;99.90;;;;;;5089649;28;20040;-75
2022/05/02 02:43:21;;;;;;;15.73;9.18;;;4.70;99.90;;;;;;5096948;28;20491;-75
2022/05/02 02:45:46;;;;;;;13.75;9.15;;;4.70;99.90;;;;;;5090349;28;20089;-75
2022/05/02 02:48:12;;;;;;;14.95;8.70;;;4.70;99.90;;;;;;5089493;28;20143;-75
2022/05/02 02:50:38;;;;;;;13.55;9.43;;;4.70;99.90;;;;;;5083435;28;20072;-75
2022/05/02 02:53:05;;;;;;;15.00;9.50;;;4.70;99.90;;;;;;5090141;28;20051;-75
2022/05/02 02:55:30;;;;;;;14.02;9.00;;;4.70;99.90;;;;;;5089222;28;20056;-75
2022/05/02 02:57:59;;;;;;;15.73;10.23;;;4.60;99.90;;;;;;5088866;28;20106;-75
2022/05/02 03:00:25;;;;;;;16.85;9.95;;;4.60;99.90;;;;;;5090051;28;20048;-75
2022/05/02 03:02:53;;;;;;;14.23;9.65;;;4.70;99.90;;;;;;5088442;28;20036;-75
2022/05/02 03:08:09;;;;;;;15.98;9.23;;;4.60;99.90;;;;;;5089124;28;20076;-75
2022/05/02 03:10:34;;;;;;;15.32;10.13;;;4.60;99.90;;;;;;5088253;28;20048;-75
2022/05/02 03:13:00;;;;;;;15.40;9.85;;;4.60;99.90;;;;;;5089528;28;20407;-75
2022/05/02 03:15:26;;;;;;;14.73;9.93;;;4.60;99.90;;;;;;5089851;28;20044;-75
2022/05/02 03:17:51;;;;;;;18.13;9.88;;;4.60;99.90;;;;;;5087829;28;20093;-75
2022/05/02 03:20:17;;;;;;;25.08;10.55;;;4.60;99.90;;;;;;5086729;28;20040;-75
2022/05/02 03:22:43;;;;;;;16.33;9.70;;;4.60;99.90;;;;;;5084313;28;20159;-75
2022/05/02 03:25:09;;;;;;;16.10;10.05;;;4.60;99.90;;;;;;5090362;28;20036;-75
2022/05/02 03:27:34;;;;;;;15.23;10.48;;;4.60;99.90;;;;;;5105415;28;20052;-75
2022/05/02 03:30:00;;;;;;;15.73;10.38;;;4.50;99.90;;;;;;5089271;28;20081;-75
2022/05/02 03:32:25;;;;;;;14.95;10.05;;;4.80;99.90;;;;;;5077480;28;20040;-75
2022/05/02 03:34:51;;;;;;;15.88;10.23;;;4.50;99.90;;;;;;5103441;28;20052;-75
2022/05/02 03:37:17;;;;;;;17.77;11.10;;;4.50;99.90;;;;;;5090993;28;20052;-75
2022/05/02 03:39:43;;;;;;;17.25;10.45;;;4.90;99.90;;;;;;5088876;28;20043;-75
2022/05/02 03:42:09;;;;;;;16.23;10.75;;;4.50;99.90;;;;;;5089065;28;20471;-75
2022/05/02 03:44:35;;;;;;;18.52;10.52;;;4.40;99.90;;;;;;5090725;28;20048;-76
2022/05/02 03:47:01;;;;;;;16.83;10.10;;;4.40;99.90;;;;;;5080784;28;20056;-76
2022/05/02 03:49:26;;;;;;;19.30;11.30;;;4.40;99.90;;;;;;5089659;28;20135;-75
2022/05/02 03:51:52;;;;;;;19.40;11.43;;;4.40;99.90;;;;;;5072955;28;20052;-76
2022/05/02 03:54:17;;;;;;;17.80;10.80;;;4.40;99.90;;;;;;5092541;28;20134;-75
2022/05/02 03:56:43;;;;;;;17.27;10.80;;;4.40;99.90;;;;;;5092715;28;20044;-76
2022/05/02 03:59:09;;;;;;;16.15;10.52;;;4.40;99.90;;;;;;5088458;28;20059;-76
2022/05/02 04:01:40;;;;;;;17.63;10.80;;;4.30;99.90;;;;;;5089830;28;20392;-76
2022/05/02 04:04:05;;;;;;;17.08;11.30;;;4.30;99.90;;;;;;5089063;28;20442;-76
2022/05/02 04:06:31;;;;;;;17.10;11.13;;;4.30;99.90;;;;;;5089928;28;20090;-76
2022/05/02 04:08:57;;;;;;;16.45;10.68;;;4.30;99.90;;;;;;5086057;28;20098;-76
2022/05/02 04:11:22;;;;;;;16.88;10.55;;;4.30;99.90;;;;;;5077765;28;20062;-76
2022/05/02 04:13:49;;;;;;;17.05;10.70;;;4.30;99.90;;;;;;5082860;28;20135;-76
2022/05/02 04:16:15;;;;;;;16.38;11.23;;;4.30;99.90;;;;;;5088285;28;20108;-76
2022/05/02 04:18:41;;;;;;;17.35;11.15;;;4.30;99.90;;;;;;5083888;28;20380;-76
2022/05/02 04:21:07;;;;;;;19.38;10.93;;;4.30;99.90;;;;;;5083182;28;20566;-76
2022/05/02 04:23:33;;;;;;;17.67;11.30;;;4.30;99.90;;;;;;5079055;28;20036;-76
2022/05/02 04:25:59;;;;;;;21.60;11.48;;;4.20;99.90;;;;;;5082109;28;20116;-76
2022/05/02 04:28:25;;;;;;;19.50;11.57;;;4.20;99.90;;;;;;5097474;28;20123;-76
2022/05/02 04:30:50;;;;;;;16.48;10.70;;;4.30;99.90;;;;;;5082006;28;20051;-76
2022/05/02 04:33:16;;;;;;;18.15;11.77;;;4.20;99.90;;;;;;5086182;28;20462;-76
2022/05/02 04:35:42;;;;;;;18.65;11.80;;;4.20;99.90;;;;;;5082954;28;20383;-76
2022/05/02 04:38:07;;;;;;;17.25;10.15;;;4.30;99.90;;;;;;5080971;28;20136;-76
2022/05/02 04:40:33;;;;;;;18.40;12.02;;;4.30;99.90;;;;;;5087489;28;20055;-76
2022/05/02 04:42:59;;;;;;;18.48;12.70;;;4.30;99.90;;;;;;5087910;28;20051;-76
2022/05/02 04:45:24;;;;;;;16.77;11.63;;;4.30;99.90;;;;;;5087519;28;20138;-76
2022/05/02 04:47:50;;;;;;;15.68;10.82;;;4.30;99.90;;;;;;5087574;28;20093;-76
2022/05/02 04:50:16;;;;;;;15.98;10.23;;;4.30;99.90;;;;;;5088854;28;20177;-76
2022/05/02 04:52:41;;;;;;;16.67;11.18;;;4.30;99.90;;;;;;5089475;28;20048;-76
2022/05/02 04:55:08;;;;;;;22.38;12.20;;;4.70;99.90;;;;;;5087060;28;20396;-76
2022/05/02 04:57:33;;;;;;;16.05;10.73;;;4.40;99.90;;;;;;5085416;28;20063;-75
2022/05/02 04:59:59;;;;;;;17.60;11.27;;;4.40;99.90;;;;;;5080373;28;20462;-76
2022/05/02 05:02:25;;;;;;;17.88;11.50;;;4.40;99.90;;;;;;5086987;28;20092;-75
2022/05/02 05:04:51;;;;;;;17.55;10.80;;;4.40;99.90;;;;;;5090047;28;20040;-75
2022/05/02 05:07:16;;;;;;;16.52;11.52;;;4.50;99.90;;;;;;5079894;28;20079;-76
2022/05/02 05:09:42;;;;;;;16.00;11.52;;;4.70;99.90;;;;;;5082706;28;20166;-75
2022/05/02 05:12:29;;;;;;;19.98;11.75;;;4.50;99.90;;;;;;5074931;28;20041;-75
2022/05/02 05:18:36;;;;;;;18.95;11.68;;;4.60;99.90;;;;;;5088950;28;20044;-75
2022/05/02 05:21:07;;;;;;;18.02;11.90;;;4.60;99.90;;;;;;5088549;28;20040;-76
2022/05/02 05:23:51;;;;;;;19.77;11.98;;;4.70;99.90;;;;;;5084036;28;20036;-76
2022/05/02 05:26:41;;;;;;;19.30;11.82;;;4.70;99.90;;;;;;5086329;28;20083;-81
2022/05/02 05:29:31;;;;;;;19.27;12.52;;;4.80;99.90;;;;;;5081617;28;20612;-80
2022/05/02 05:32:19;;;;;;;18.80;11.75;;;4.80;99.90;;;;;;5085688;28;20551;-79
2022/05/02 05:35:07;;;;;;;22.75;12.07;;;5.00;99.90;;;;;;5086774;28;20082;-80
2022/05/02 05:37:57;;;;;;;22.05;13.10;;;4.90;99.90;;;;;;5089638;28;20123;-80
2022/05/02 05:40:30;;;;;;;21.55;13.88;;;5.00;99.90;;;;;;5103301;28;20044;-79
2022/05/02 05:43:14;;;;;;;21.92;13.80;;;5.10;99.90;;;;;;5081137;28;20044;-81
2022/05/02 05:46:10;;;;;;;20.33;12.95;;;5.10;99.90;;;;;;5088149;28;20474;-89
2022/05/02 05:48:55;;;;;;;21.73;13.38;;;5.30;99.90;;;;;;5083038;28;20048;-78
2022/05/02 05:51:28;;;;;;;24.80;14.25;;;5.30;99.90;;;;;;5075608;28;20068;-78
2022/05/02 05:53:59;;;;;;;21.85;12.75;;;5.40;99.90;;;;;;5081595;28;20130;-81
2022/05/02 05:56:53;;;;;;;19.77;13.60;;;5.50;99.90;;;;;;5074501;28;20053;-82
2022/05/02 05:59:41;;;;;;;23.55;14.13;;;5.60;99.90;;;;;;5079142;28;20052;-79
2022/05/02 06:02:18;;;;;;;24.73;14.55;;;5.70;99.90;;;;;;5084849;28;20048;-77
2022/05/02 06:04:49;;;;;;;22.58;14.18;;;5.80;99.90;;;;;;5084396;28;20055;-79
2022/05/02 06:07:18;;;;;;;20.50;13.40;;;5.90;99.90;;;;;;5084171;28;20131;-79
2022/05/02 06:09:44;;;;;;;26.13;13.40;;;6.00;99.90;;;;;;5086052;28;20039;-79
2022/05/02 06:12:13;;;;;;;23.48;13.68;;;6.00;99.90;;;;;;5086472;28;20043;-78
2022/05/02 06:20:15;;;;;;;22.60;13.35;;;6.40;99.90;;;;;;5087826;28;20525;-79
2022/05/02 06:22:41;;;;;;;21.45;14.45;;;6.50;99.90;;;;;;5082910;28;20101;-79
2022/05/02 06:25:07;;;;;;;20.58;14.90;;;6.60;99.90;;;;;;5074899;28;20053;-77
2022/05/02 06:27:33;;;;;;;22.65;15.65;;;6.60;99.90;;;;;;5084963;28;20096;-79
2022/05/02 06:30:02;;;;;;;21.55;15.38;;;6.70;99.90;;;;;;5085217;28;20410;-79
2022/05/02 06:32:29;;;;;;;22.20;15.60;;;6.80;99.90;;;;;;5082767;28;20044;-80
2022/05/02 06:34:55;;;;;;;23.55;15.88;;;6.90;99.90;;;;;;5087836;28;20044;-79
2022/05/02 06:37:37;;;;;;;21.65;15.13;;;7.00;99.90;;;;;;5089801;28;20059;-77
2022/05/02 06:40:27;;;;;;;21.40;15.50;;;7.10;99.90;;;;;;5088429;28;20083;-77
2022/05/02 06:43:33;;;;;;;21.50;16.30;;;7.20;99.90;;;;;;5090423;28;20052;-77
2022/05/02 06:46:10;;;;;;;24.70;15.02;;;7.30;99.90;;;;;;5089765;28;20040;-78
2022/05/02 06:48:45;;;;;;;24.65;15.93;;;7.30;99.90;;;;;;5091295;28;20048;-78
2022/05/02 06:51:30;;;;;;;;;;;7.50;99.90;;;;;;5090092;28;20048;-78
2022/05/02 06:54:19;;;;;;;21.98;14.18;;;7.60;99.90;;;;;;5078859;28;20294;-82
2022/05/02 06:57:04;;;;;;;23.13;14.52;;;7.70;99.90;;;;;;5090669;28;20055;-82
2022/05/02 06:59:34;;;;;;;19.85;14.13;;;7.80;99.90;;;;;;5088445;28;20379;-82
2022/05/02 07:02:24;;;;;;;18.35;13.23;;;7.90;99.90;;;;;;5089264;28;20051;-82
2022/05/02 07:04:56;;;;;;;16.05;12.23;;;8.10;99.90;;;;;;5082639;28;20493;-82
2022/05/02 07:07:44;;;;;;;17.45;11.65;;;8.20;99.90;;;;;;5088277;28;20482;-82
2022/05/02 07:10:29;;;;;;;18.60;11.10;;;8.20;99.90;;;;;;5080870;28;20079;-82
2022/05/02 07:12:58;;;;;;;14.88;11.80;;;8.30;99.90;;;;;;5075980;28;20036;-81
2022/05/02 07:15:45;;;;;;;14.05;10.38;;;8.40;99.90;;;;;;5089793;28;20398;-82
2022/05/02 07:18:23;;;;;;;16.17;10.27;;;8.50;99.90;;;;;;5089976;28;20512;-82
2022/05/02 07:20:53;;;;;;;16.92;11.15;;;8.60;99.90;;;;;;5089891;28;20502;-82
2022/05/02 07:23:40;;;;;;;19.25;10.80;;;8.60;99.90;;;;;;5083475;28;20048;-81
2022/05/02 07:26:08;;;;;;;17.85;11.73;;;8.70;99.90;;;;;;5083562;28;20047;-78
2022/05/02 07:28:44;;;;;;;17.08;11.38;;;8.80;99.90;;;;;;5093493;28;20126;-81
2022/05/02 07:31:19;;;;;;;17.02;10.98;;;8.90;99.90;;;;;;5092188;28;20140;-80
2022/05/02 07:33:47;;;;;;;16.60;9.98;;;9.00;99.90;;;;;;5108430;28;20035;-80
2022/05/02 07:36:16;;;;;;;17.20;10.25;;;9.00;99.90;;;;;;5094443;28;20036;-80
2022/05/02 07:38:52;;;;;;;11.63;8.68;;;9.10;99.90;;;;;;5094151;28;20060;-80
2022/05/02 07:41:22;;;;;;;14.93;8.77;;;9.20;99.90;;;;;;5092048;28;20073;-81
2022/05/02 07:44:07;;;;;;;13.43;7.97;;;9.30;99.90;;;;;;5094101;28;20437;-80
2022/05/02 07:46:36;;;;;;;;;;;9.40;99.90;;;;;;5088879;28;20055;-80
2022/05/02 07:49:05;;;;;;;12.32;8.32;;;9.50;99.90;;;;;;5093919;28;19920;-79
2022/05/02 07:51:31;;;;;;;11.35;8.45;;;9.70;99.90;;;;;;5086245;28;20386;-80
2022/05/02 07:53:59;;;;;;;16.02;8.85;;;9.80;99.90;;;;;;5083098;28;20836;-80
2022/05/02 07:56:30;;;;;;;13.70;8.57;;;9.90;99.90;;;;;;5088156;28;20054;-80
2022/05/02 07:58:57;;;;;;;13.20;8.43;;;10.10;99.90;;;;;;5079642;28;20044;-80
2022/05/02 08:01:24;;;;;;;14.90;9.05;;;10.20;99.90;;;;;;5091712;28;20059;-80
2022/05/02 08:03:51;;;;;;;13.82;8.68;;;10.40;99.90;;;;;;5093669;28;20032;-79
2022/05/02 08:06:45;;;;;;;13.10;8.32;;;10.50;99.90;;;;;;5093152;28;20071;-80
2022/05/02 08:09:25;;;;;;;12.95;7.47;;;10.70;99.90;;;;;;5093543;28;20047;-81
2022/05/02 08:11:51;;;;;;;12.07;7.30;;;10.80;99.90;;;;;;5093302;28;20051;-81
2022/05/02 08:14:22;;;;;;;12.93;8.23;;;11.00;99.90;;;;;;5090824;28;20101;-81
2022/05/02 08:17:12;;;;;;;12.65;7.85;;;11.10;99.90;;;;;;5092609;28;20043;-81
2022/05/02 08:20:06;;;;;;;11.68;7.30;;;11.30;99.90;;;;;;5081100;28;20125;-81
2022/05/02 08:28:54;;;;;;;17.05;7.40;;;11.90;99.90;;;;;;5078824;28;20478;-80
2022/05/02 08:31:27;;;;;;;10.55;6.82;;;12.00;99.90;;;;;;5093525;28;20044;-81
2022/05/02 08:33:59;;;;;;;9.65;7.20;;;12.20;99.90;;;;;;5094005;28;20115;-82
2022/05/02 08:36:59;;;;;;;10.38;7.00;;;12.30;99.90;;;;;;5090977;28;20044;-81
2022/05/02 08:39:49;;;;;;;11.15;6.40;;;12.50;99.90;;;;;;5092685;28;20040;-79
2022/05/02 08:42:35;;;;;;;12.68;7.50;;;12.60;99.90;;;;;;5085902;28;20531;-82
2022/05/02 08:45:34;;;;;;;10.65;7.72;;;12.60;99.90;;;;;;5088706;28;20131;-82
2022/05/02 08:48:32;;;;;;;10.98;6.95;;;12.80;99.90;;;;;;5072286;28;20044;-83
2022/05/02 08:51:09;;;;;;;9.93;7.07;;;12.90;99.90;;;;;;5083665;28;20075;-89
2022/05/02 08:53:58;;;;;;;10.32;7.20;;;13.10;99.90;;;;;;5093366;28;20036;-88
2022/05/02 08:56:50;;;;;;;12.40;7.40;;;13.20;99.90;;;;;;5074022;28;20151;-86
2022/05/02 08:59:45;;;;;;;11.98;7.45;;;13.40;99.90;;;;;;5089324;28;20051;-90
2022/05/02 09:02:47;;;;;;;13.80;7.70;;;13.50;99.90;;;;;;5092879;28;20482;-87
2022/05/02 09:05:37;;;;;;;10.18;7.07;;;13.60;99.90;;;;;;5094294;28;20040;-89
2022/05/02 09:09:00;;;;;;;11.05;6.90;;;13.70;99.90;;;;;;5092824;28;20055;-82
2022/05/02 09:11:52;;;;;;;11.52;7.90;;;13.80;99.90;;;;;;5087755;28;20089;-81
2022/05/02 09:14:37;;;;;;;11.55;6.68;;;14.00;99.90;;;;;;5092884;28;20048;-81
2022/05/02 09:17:36;;;;;;;11.35;7.47;;;14.10;99.90;;;;;;5091669;28;20125;-81
2022/05/02 09:20:15;;;;;;;11.50;7.88;;;14.20;99.00;;;;;;5090820;28;20086;-80
2022/05/02 09:23:18;;;;;;;10.38;6.95;;;14.20;98.90;;;;;;5084384;28;20398;-80
2022/05/02 09:26:02;;;;;;;12.75;8.05;;;14.40;99.50;;;;;;5081508;28;20514;-80
2022/05/02 09:28:59;;;;;;;12.05;7.30;;;14.50;99.40;;;;;;5092682;28;20048;-87
2022/05/02 09:31:46;;;;;;;10.95;7.10;;;14.60;99.00;;;;;;5092524;28;20125;-90
2022/05/02 09:34:33;;;;;;;11.35;7.95;;;14.70;99.30;;;;;;5090322;28;20101;-88
2022/05/02 09:37:20;;;;;;;9.27;7.35;;;14.80;98.50;;;;;;5102240;28;20616;-88
2022/05/02 09:39:48;;;;;;;10.10;6.60;;;14.90;97.70;;;;;;5083557;28;20055;-91
2022/05/02 09:42:26;;;;;;;9.25;6.93;;;15.00;99.00;;;;;;5108055;28;20093;-89
2022/05/02 09:51:39;;;;;;;8.93;6.80;;;15.30;96.20;;;;;;5086241;28;20044;-90
2022/05/02 09:57:38;;;;;;;11.40;7.15;;;14.80;95.30;;;;;;5070803;28;20492;-90
2022/05/02 10:02:58;;;;;;;11.43;6.68;;;14.90;94.20;;;;;;5094515;28;20036;-95
2022/05/02 10:05:29;;;;;;;10.52;6.35;;;15.00;95.80;;;;;;5090883;28;20074;-90
2022/05/02 10:08:01;;;;;;;15.18;7.00;;;15.20;95.30;;;;;;5106646;28;20136;-90
2022/05/02 10:10:39;;;;;;;11.10;6.78;;;15.40;95.10;;;;;;5090784;28;20047;-92
2022/05/02 10:13:19;;;;;;;12.50;6.90;;;15.50;94.70;;;;;;5094448;28;20093;-90
2022/05/02 10:16:22;;;;;;;10.35;6.78;;;15.80;93.40;;;;;;5093956;28;20044;-96
2022/05/02 10:18:56;;;;;;;9.60;6.90;;;15.90;93.10;;;;;;5090031;28;20048;-88
2022/05/02 10:21:41;;;;;;;10.00;6.68;;;16.00;93.60;;;;;;5071477;28;20572;-89
2022/05/02 10:24:10;;;;;;;9.48;6.88;;;16.10;93.40;;;;;;5064905;28;20053;-87
2022/05/02 10:26:56;;;;;;;10.98;6.40;;;16.00;90.50;;;;;;5071358;28;20051;-88
2022/05/02 10:29:59;;;;;;;9.63;5.65;;;16.00;92.40;;;;;;5090061;28;20069;-88
2022/05/02 10:32:40;;;;;;;8.20;6.22;;;16.00;90.80;;;;;;5091521;28;20079;-88
2022/05/02 10:35:10;;;;;;;8.70;6.32;;;16.10;92.80;;;;;;5073694;28;20098;-88
2022/05/02 10:37:39;;;;;;;9.73;6.65;;;16.20;93.50;;;;;;5090348;28;20522;-91
2022/05/02 10:40:08;;;;;;;14.98;8.02;;;16.40;93.50;;;;;;5090987;28;20166;-88
2022/05/02 10:42:34;;;;;;;9.90;7.20;;;16.50;91.90;;;;;;5087888;28;20062;-89
2022/05/02 10:45:09;;;;;;;11.93;7.22;;;16.60;92.40;;;;;;5089276;28;20040;-88
2022/05/02 10:47:44;;;;;;;;;;;16.80;91.20;;;;;;5087934;28;20040;-88
2022/05/02 10:50:19;;;;;;;9.23;6.57;;;17.00;90.80;;;;;;5089115;28;19927;-88
2022/05/02 10:53:12;;;;;;;8.45;6.47;;;17.20;92.20;;;;;;5089932;28;20084;-88
2022/05/02 10:55:45;;;;;;;10.85;7.05;;;17.40;91.60;;;;;;5069806;28;20106;-88
2022/05/02 10:58:11;;;;;;;8.18;6.13;;;17.40;90.50;;;;;;5070804;28;20044;-88
2022/05/02 11:01:09;;;;;;;9.00;6.25;;;17.40;90.80;;;;;;5071193;28;20107;-88
2022/05/02 11:03:59;;;;;;;8.95;6.10;;;17.20;90.30;;;;;;5096481;28;20044;-88
2022/05/02 11:06:57;;;;;;;10.27;6.82;;;17.00;90.40;;;;;;5098053;28;20040;-87
2022/05/02 11:09:40;;;;;;;9.93;6.63;;;16.70;87.50;;;;;;5097969;28;20122;-88
2022/05/02 11:12:14;;;;;;;9.60;7.38;;;16.60;90.10;;;;;;5093286;28;20056;-88
2022/05/02 11:14:53;;;;;;;12.53;7.93;;;16.70;89.40;;;;;;5077610;28;20119;-88
2022/05/02 11:17:26;;;;;;;11.75;7.30;;;16.70;90.60;;;;;;5087334;28;20044;-89
2022/05/02 11:23:21;;;;;;;11.02;6.45;;;16.90;88.40;;;;;;5092148;28;20474;-88
2022/05/02 11:26:21;;;;;;;9.52;6.22;;;17.00;90.00;;;;;;5076851;28;20044;-87
2022/05/02 11:28:48;;;;;;;8.88;6.60;;;17.20;89.00;;;;;;5080194;28;20047;-88
2022/05/02 11:31:36;;;;;;;7.80;5.68;;;17.30;86.80;;;;;;5082945;28;20133;-87
2022/05/02 11:34:19;;;;;;;9.77;6.15;;;17.30;88.20;;;;;;5097659;28;20044;-88
2022/05/02 11:36:51;;;;;;;9.45;6.70;;;17.20;91.30;;;;;;5097040;28;20044;-89
2022/05/02 11:39:24;;;;;;;9.80;6.38;;;17.10;88.80;;;;;;5097183;28;20052;-88
2022/05/02 11:41:53;;;;;;;11.38;6.45;;;17.00;85.40;;;;;;5097335;28;20436;-88
2022/05/02 11:44:25;;;;;;;8.73;6.57;;;17.00;86.30;;;;;;5086871;28;20041;-88
2022/05/02 11:46:59;;;;;;;11.02;7.13;;;17.10;86.60;;;;;;5085541;28;20043;-88
2022/05/02 11:49:38;;;;;;;9.20;5.85;;;17.20;84.90;;;;;;5096374;28;20051;-88
2022/05/02 11:52:11;;;;;;;8.77;5.68;;;17.40;85.70;;;;;;5097690;28;20059;-88
2022/05/02 11:54:39;;;;;;;7.00;5.18;;;17.60;85.10;;;;;;5096579;28;20063;-87
2022/05/02 11:57:25;;;;;;;8.50;5.28;;;17.80;84.40;;;;;;5097519;28;20491;-88
2022/05/02 12:00:05;;;;;;;8.68;6.07;;;18.00;84.00;;;;;;5075810;28;20407;-89
2022/05/02 12:02:37;;;;;;;7.63;5.85;;;18.30;85.30;;;;;;5086255;28;20071;-88
2022/05/02 12:05:17;;;;;;;8.60;6.00;;;18.40;85.90;;;;;;5097567;28;20035;-88
2022/05/02 12:07:58;;;;;;;7.60;5.40;;;18.50;80.70;;;;;;5096366;28;20083;-88
2022/05/02 12:10:41;;;;;;;8.73;4.72;;;18.50;82.20;;;;;;5097209;28;20051;-87
2022/05/02 12:13:12;;;;;;;8.50;5.10;;;18.70;77.50;;;;;;5078776;28;20046;-86
2022/05/02 12:15:58;;;;;;;13.02;5.03;;;18.70;78.30;;;;;;5078164;28;20066;-89
2022/05/02 12:18:55;;;;;;;7.40;4.72;;;18.80;75.20;;;;;;5094212;28;20394;-89
2022/05/02 12:21:31;;;;;;;6.50;4.32;;;18.90;83.50;;;;;;5094094;28;20047;-89
2022/05/02 12:23:58;;;;;;;11.40;5.43;;;19.00;80.90;;;;;;5081090;28;20059;-87
2022/05/02 12:26:25;;;;;;;13.30;5.20;;;19.20;80.90;;;;;;5073743;28;20052;-87
2022/05/02 12:28:55;;;;;;;7.80;5.05;;;19.20;78.10;;;;;;5084407;28;20516;-87
2022/05/02 12:31:27;;;;;;;7.63;4.60;;;19.20;78.80;;;;;;5093431;28;20040;-82
2022/05/02 12:34:05;;;;;;;7.72;5.25;;;19.20;78.10;;;;;;5092685;28;20046;-83
2022/05/02 12:36:55;;;;;;;6.85;5.03;;;19.20;76.10;;;;;;5092034;28;20048;-83
2022/05/02 12:39:26;;;;;;;9.43;4.85;;;19.20;75.20;;;;;;5093119;28;20051;-87
2022/05/02 12:42:25;;;;;;;9.35;4.80;;;19.30;78.30;;;;;;5089059;28;20044;-90
2022/05/02 12:45:04;;;;;;;6.88;5.22;;;19.40;74.70;;;;;;5091643;28;20510;-84
2022/05/02 12:47:39;;;;;;;6.45;4.68;;;19.40;72.90;;;;;;5093311;28;20073;-83
2022/05/02 12:50:06;;;;;;;8.90;4.68;;;19.50;77.60;;;;;;5091857;28;20482;-83
2022/05/02 12:52:33;;;;;;;7.68;4.55;;;19.50;75.20;;;;;;5091712;28;20182;-83
2022/05/02 12:54:59;;;;;;;7.70;4.90;;;19.60;75.70;;;;;;5078283;28;20055;-84
2022/05/02 13:00:40;;;;;;;10.10;5.18;;;19.90;71.00;;;;;;5088798;28;20044;-84
2022/05/02 13:03:16;;;;;;;9.10;5.05;;;19.90;74.50;;;;;;5091490;28;20043;-84
2022/05/02 13:05:55;;;;;;;7.05;5.07;;;20.00;80.90;;;;;;5092631;28;20094;-84
2022/05/02 13:08:39;;;;;;;7.32;5.55;;;20.00;75.00;;;;;;5092572;28;20039;-89
2022/05/02 13:11:35;;;;;;;9.70;6.68;;;20.10;72.10;;;;;;5091038;28;20471;-83
2022/05/02 13:14:03;;;;;;;8.55;5.90;;;20.00;73.80;;;;;;5092044;28;20052;-83
2022/05/02 13:16:31;;;;;;;8.30;6.20;;;20.00;73.80;;;;;;5090601;28;20044;-84
2022/05/02 13:19:03;;;;;;;8.68;5.72;;;20.00;72.80;;;;;;5091383;28;20052;-84
2022/05/02 13:21:29;;;;;;;9.43;5.30;;;20.00;73.60;;;;;;5091477;28;20059;-85
2022/05/02 13:24:11;;;;;;;6.88;5.07;;;20.10;74.20;;;;;;5085897;28;20040;-85
2022/05/02 13:26:53;;;;;;;10.05;4.60;;;20.10;73.40;;;;;;5091996;28;20172;-85
2022/05/02 13:29:35;;;;;;;9.10;5.03;;;20.10;73.10;;;;;;5092905;28;20036;-86
2022/05/02 13:32:04;;;;;;;7.22;4.82;;;20.00;72.30;;;;;;5087327;28;20039;-86
2022/05/02 13:35:05;;;;;;;8.95;5.28;;;20.00;73.90;;;;;;5093591;28;20048;-87
2022/05/02 13:37:46;;;;;;;7.53;5.00;;;20.10;73.40;;;;;;5087920;28;20047;-87
2022/05/02 13:40:13;;;;;;;7.60;5.40;;;20.10;73.70;;;;;;5090722;28;20048;-86
2022/05/02 13:42:53;;;;;;;13.25;5.38;;;20.10;73.50;;;;;;5103225;28;20047;-87
2022/05/02 13:45:30;;;;;;;7.40;4.68;;;20.20;73.20;;;;;;5113868;28;20043;-87
2022/05/02 13:48:16;;;;;;;7.07;4.50;;;20.20;73.50;;;;;;5110386;28;20054;-87
2022/05/02 13:51:18;;;;;;;9.02;5.47;;;20.20;74.10;;;;;;5104447;28;20383;-88
2022/05/02 13:54:19;;;;;;;7.85;5.05;;;20.10;73.30;;;;;;5103026;28;20108;-86
2022/05/02 13:56:53;;;;;;;6.60;4.93;;;19.80;73.90;;;;;;5092540;28;20050;-87